Time;durP1;ratioP1;P1;durP2;ratioP2;P2;SDS_P1;SDS_P2;PMS_P1;PMS_P2;Temp;Humidity;BMP_temperature;BMP_pressure;BME280_temperature;BME280_humidity;BME280_pressure;Samples;Min_cycle;Max_cycle;Signal;HPM_P1;HPM_P2
2023/07/01 00:00:25;;;;;;;2.47;1.50;;;19.30;91.60;;;19.66;81.16;100339.94;5225219;28;20055;-50
2023/07/01 00:03:04;;;;;;;2.50;1.40;;;19.30;91.60;;;19.67;80.90;100339.03;5225085;28;20045;-49
2023/07/01 00:05:37;;;;;;;3.58;1.52;;;19.30;91.60;;;19.67;80.72;100341.69;5225165;28;20441;-49
2023/07/01 00:08:12;;;;;;;1.95;1.42;;;19.30;91.50;;;19.65;80.52;100340.81;5225167;28;20514;-50
2023/07/01 00:10:44;;;;;;;2.72;1.40;;;19.30;91.40;;;19.67;80.53;100336.38;5224957;28;20055;-50
2023/07/01 00:13:17;;;;;;;1.55;1.30;;;19.30;91.40;;;19.67;80.58;100338.16;5225104;28;20056;-50
2023/07/01 00:15:51;;;;;;;1.63;1.30;;;19.30;91.50;;;19.67;80.28;100325.81;5225080;28;20053;-51
2023/07/01 00:18:23;;;;;;;1.35;1.20;;;19.30;91.40;;;19.67;80.25;100325.81;5225016;28;20055;-50
2023/07/01 00:20:56;;;;;;;2.33;1.20;;;19.30;91.30;;;19.68;80.07;100322.25;5225309;28;20052;-51
2023/07/01 00:23:28;;;;;;;1.30;1.20;;;19.30;91.30;;;19.69;79.80;100315.22;5226132;28;20044;-51
2023/07/01 00:26:01;;;;;;;1.90;1.35;;;19.30;91.20;;;19.69;79.51;100321.41;5224718;28;20452;-48
2023/07/01 00:28:34;;;;;;;2.30;1.60;;;19.30;91.10;;;19.70;79.27;100314.34;5224843;28;20103;-52
2023/07/01 00:31:08;;;;;;;2.65;1.35;;;19.30;91.00;;;19.67;79.08;100309.94;5224732;28;20056;-51
2023/07/01 00:33:40;;;;;;;1.38;1.23;;;19.30;90.90;;;19.67;78.91;100315.22;5224565;28;20131;-51
2023/07/01 00:36:12;;;;;;;1.98;1.45;;;19.30;90.90;;;19.66;78.94;100308.19;5224492;28;20044;-49
2023/07/01 00:38:45;;;;;;;1.42;1.33;;;19.30;90.90;;;19.66;79.11;100308.19;5224516;28;20417;-49
2023/07/01 00:41:20;;;;;;;2.03;1.40;;;19.30;90.90;;;19.66;78.88;100309.97;5224353;28;20402;-49
2023/07/01 00:43:52;;;;;;;2.65;1.33;;;19.30;90.90;;;19.62;78.82;100306.47;5223635;28;20571;-52
2023/07/01 00:46:26;;;;;;;4.43;1.48;;;19.30;90.90;;;19.61;78.49;100299.44;5223510;28;20045;-52
2023/07/01 00:49:00;;;;;;;2.15;1.27;;;19.20;90.70;;;19.60;78.42;100297.69;5223679;28;20063;-52
2023/07/01 00:51:32;;;;;;;1.70;1.30;;;19.20;90.70;;;19.59;78.34;100292.41;5223258;28;20047;-52
2023/07/01 00:54:05;;;;;;;2.30;1.33;;;19.20;90.70;;;19.59;78.22;100288.00;5223402;28;20052;-52
2023/07/01 00:56:38;;;;;;;1.80;1.40;;;19.20;90.70;;;19.61;78.41;100282.69;5223715;28;20037;-52
2023/07/01 00:59:10;;;;;;;2.13;1.25;;;19.20;90.70;;;19.60;78.25;100281.81;5223133;28;20049;-52
2023/07/01 01:01:48;;;;;;;1.90;1.50;;;19.20;90.70;;;19.58;78.22;100275.69;5222774;28;20053;-52
2023/07/01 01:04:29;;;;;;;1.67;1.40;;;19.20;90.60;;;19.55;78.34;100278.31;5223539;28;20037;-53
2023/07/01 01:07:06;;;;;;;4.05;1.40;;;19.20;90.70;;;19.55;78.41;100267.72;5216052;28;20045;-52
2023/07/01 01:09:46;;;;;;;1.90;1.40;;;19.20;90.70;;;19.56;78.32;100276.53;5222706;28;20060;-52
2023/07/01 01:12:20;;;;;;;1.35;1.25;;;19.20;90.70;;;19.52;78.23;100262.50;5223286;28;20045;-53
2023/07/01 01:14:53;;;;;;;1.50;1.33;;;19.20;90.60;;;19.49;78.32;100258.09;5222945;28;20045;-53
2023/07/01 01:17:30;;;;;;;2.55;1.60;;;19.10;90.60;;;19.49;78.05;100260.72;5224348;28;20044;-52
2023/07/01 01:20:13;;;;;;;1.65;1.30;;;19.10;90.60;;;19.45;78.25;100245.81;5222773;28;20052;-54
2023/07/01 01:22:50;;;;;;;2.92;1.30;;;19.10;90.60;;;19.43;78.37;100252.00;5222695;28;20056;-52
2023/07/01 01:25:29;;;;;;;1.45;1.20;;;19.10;90.60;;;19.41;78.31;100249.38;5222788;28;20529;-53
2023/07/01 01:28:04;;;;;;;3.13;1.50;;;19.10;90.60;;;19.37;78.46;100252.09;5215273;28;20409;-53
2023/07/01 01:30:37;;;;;;;2.28;1.50;;;19.10;90.70;;;19.36;78.68;100250.31;5222555;28;20533;-53
2023/07/01 01:33:10;;;;;;;;;;;19.00;90.70;;;19.37;78.98;100239.75;5223157;28;20055;-54
2023/07/01 01:35:43;;;;;;;2.35;1.40;;;19.10;90.90;;;19.41;79.08;100240.56;5222512;28;20409;-54
2023/07/01 01:38:21;;;;;;;1.48;1.30;;;19.00;90.90;;;19.40;78.97;100230.91;5222132;28;20036;-53
2023/07/01 01:41:00;;;;;;;1.33;1.23;;;19.10;90.90;;;19.41;78.82;100232.63;5222346;28;20060;-52
2023/07/01 01:43:43;;;;;;;2.20;1.63;;;19.10;90.90;;;19.43;78.85;100234.41;5222473;28;20045;-52
2023/07/01 01:46:19;;;;;;;2.15;1.17;;;19.00;90.90;;;19.44;78.98;100232.63;5222587;28;20045;-52
2023/07/01 01:48:53;;;;;;;1.83;1.15;;;19.10;91.00;;;19.46;79.37;100229.06;5221832;28;20398;-53
2023/07/01 01:51:26;;;;;;;2.80;1.20;;;19.00;91.10;;;19.46;79.14;100222.91;5222603;28;20045;-53
2023/07/01 01:54:00;;;;;;;1.70;1.35;;;19.00;91.00;;;19.45;79.52;100219.38;5214246;28;20045;-53
2023/07/01 01:56:33;;;;;;;2.65;1.70;;;19.10;91.20;;;19.45;79.44;100218.53;5221943;28;20384;-54
2023/07/01 01:59:07;;;;;;;1.73;1.25;;;19.10;91.10;;;19.45;79.15;100208.81;5222131;28;20056;-53
2023/07/01 02:01:39;;;;;;;;;;;19.10;91.10;;;19.46;79.11;100210.56;5222144;28;21086;-53
2023/07/01 02:04:12;;;;;;;2.42;1.33;;;19.10;91.00;;;19.46;79.13;100214.97;5222175;28;20035;-54
2023/07/01 02:06:44;;;;;;;3.53;1.50;;;19.10;91.00;;;19.45;79.26;100213.22;5221740;28;20045;-53
2023/07/01 02:09:17;;;;;;;2.30;1.40;;;19.10;91.10;;;19.43;79.23;100205.31;5221561;28;20048;-53
2023/07/01 02:11:49;;;;;;;5.68;1.60;;;19.10;91.10;;;19.44;79.40;100208.84;5221862;28;20049;-53
2023/07/01 02:14:23;;;;;;;2.45;1.20;;;19.00;91.10;;;19.45;79.62;100213.22;5223296;28;20043;-53
2023/07/01 02:16:56;;;;;;;3.15;1.50;;;19.10;91.20;;;19.47;79.79;100222.00;5221817;28;20283;-52
2023/07/01 02:19:28;;;;;;;2.00;1.13;;;19.10;91.30;;;19.50;79.61;100219.34;5221607;28;20045;-53
2023/07/01 02:22:01;;;;;;;1.98;1.42;;;19.10;91.30;;;19.51;79.34;100218.44;5213658;28;20069;-54
2023/07/01 02:24:36;;;;;;;1.67;1.55;;;19.10;91.20;;;19.49;79.34;100209.63;5221273;28;20409;-53
2023/07/01 02:27:09;;;;;;;2.10;1.13;;;19.10;91.20;;;19.47;79.74;100211.44;5221767;28;20045;-55
2023/07/01 02:29:44;;;;;;;1.20;1.02;;;19.10;91.30;;;19.48;80.27;100210.53;5221226;28;20410;-52
2023/07/01 02:32:16;;;;;;;1.60;1.50;;;19.10;91.50;;;19.47;80.17;100199.09;5221576;28;20045;-53
2023/07/01 02:34:49;;;;;;;2.30;1.40;;;19.10;91.50;;;19.46;80.04;100199.13;5221406;28;20045;-53
2023/07/01 02:37:21;;;;;;;1.92;1.35;;;19.10;91.50;;;19.45;80.06;100200.88;5221598;28;20049;-53
2023/07/01 02:39:54;;;;;;;2.55;1.40;;;19.10;91.50;;;19.45;80.17;100202.66;5222792;28;20045;-53
2023/07/01 02:42:29;;;;;;;2.03;1.60;;;19.10;91.50;;;19.44;80.51;100204.44;5221531;28;20049;-53
2023/07/01 02:45:04;;;;;;;5.43;2.00;;;19.00;91.60;;;19.42;80.95;100185.03;5221419;28;20044;-53
2023/07/01 02:47:37;;;;;;;1.85;1.20;;;19.00;91.80;;;19.41;81.59;100190.34;5220851;28;20052;-53
2023/07/01 02:50:10;;;;;;;2.88;1.40;;;19.00;92.00;;;19.39;81.56;100182.44;5221494;28;20057;-52
2023/07/01 02:52:46;;;;;;;2.05;1.15;;;19.00;92.10;;;19.38;81.89;100188.63;5220836;28;20413;-52
2023/07/01 02:55:19;;;;;;;2.42;1.38;;;19.00;92.20;;;19.37;82.17;100180.72;5221375;28;20033;-53
2023/07/01 02:57:51;;;;;;;2.25;1.40;;;19.00;92.30;;;19.33;82.18;100182.50;5220731;28;20076;-52
2023/07/01 03:00:25;;;;;;;1.80;1.33;;;19.00;92.30;;;19.32;82.15;100180.78;5221214;28;20041;-54
2023/07/01 03:03:05;;;;;;;1.63;1.30;;;19.00;92.30;;;19.32;82.14;100179.91;5220965;28;20044;-52
2023/07/01 03:05:39;;;;;;;1.88;1.20;;;18.90;92.30;;;19.32;82.50;100182.53;5221026;28;20073;-53
2023/07/01 03:08:11;;;;;;;1.90;1.75;;;18.90;92.50;;;19.34;82.69;100181.63;5220669;28;20421;-52
2023/07/01 03:10:43;;;;;;;1.30;1.15;;;19.00;92.60;;;19.35;82.88;100178.06;5220772;28;20044;-52
2023/07/01 03:13:16;;;;;;;1.90;1.35;;;19.00;92.70;;;19.37;82.86;100175.44;5221197;28;20556;-53
2023/07/01 03:15:50;;;;;;;1.33;1.17;;;19.00;92.70;;;19.37;83.07;100173.69;5221017;28;20041;-53
2023/07/01 03:18:22;;;;;;;2.20;1.33;;;19.00;92.80;;;19.39;83.18;100181.56;5220959;28;20033;-54
2023/07/01 03:20:57;;;;;;;2.15;1.27;;;19.00;92.80;;;19.41;83.24;100171.84;5223431;28;20051;-53
2023/07/01 03:23:30;;;;;;;1.48;1.20;;;19.00;92.90;;;19.41;83.21;100170.09;5225223;28;20045;-52
2023/07/01 03:26:04;;;;;;;2.90;1.45;;;19.00;92.90;;;19.39;83.16;100163.94;5225115;28;20044;-53
2023/07/01 03:28:37;;;;;;;2.33;1.70;;;19.00;92.90;;;19.38;83.15;100170.13;5224662;28;20472;-54
2023/07/01 03:31:12;;;;;;;1.77;1.38;;;19.00;92.90;;;19.37;83.36;100156.94;5225107;28;20417;-53
2023/07/01 03:33:45;;;;;;;2.42;1.35;;;19.00;93.00;;;19.37;83.32;100162.22;5225295;28;20040;-52
2023/07/01 03:36:18;;;;;;;2.20;1.40;;;19.00;93.00;;;19.36;83.15;100155.16;5225050;28;20421;-54
2023/07/01 03:38:53;;;;;;;1.75;1.13;;;19.00;93.00;;;19.33;83.28;100157.84;5224277;28;20056;-52
2023/07/01 03:41:26;;;;;;;1.70;1.30;;;19.00;93.00;;;19.31;83.24;100154.38;5225941;28;20052;-54
2023/07/01 03:43:58;;;;;;;1.60;1.50;;;18.90;93.00;;;19.32;83.41;100156.13;5224582;28;20094;-52
2023/07/01 03:46:32;;;;;;;1.90;1.20;;;18.90;93.00;;;19.33;83.24;100148.16;5224653;28;20053;-53
2023/07/01 03:49:05;;;;;;;1.33;1.00;;;18.90;93.10;;;19.35;83.42;100153.41;5224420;28;20041;-53
2023/07/01 03:51:37;;;;;;;1.30;1.20;;;19.00;93.10;;;19.35;83.33;100141.09;5224429;28;20049;-52
2023/07/01 03:54:09;;;;;;;1.98;1.25;;;18.90;93.10;;;19.36;83.00;100141.97;5224738;28;20033;-53
2023/07/01 03:56:45;;;;;;;3.20;1.35;;;19.00;93.00;;;19.34;82.63;100141.09;5224422;28;20049;-52
2023/07/01 03:59:17;;;;;;;1.75;1.20;;;19.00;92.90;;;19.33;82.51;100139.38;5226070;28;20037;-52
2023/07/01 04:01:51;;;;;;;2.53;1.45;;;18.90;92.80;;;19.33;82.06;100145.53;5224111;28;20277;-53
2023/07/01 04:04:23;;;;;;;2.55;1.58;;;19.00;92.70;;;19.32;81.95;100132.34;5224439;28;20132;-52
2023/07/01 04:06:59;;;;;;;2.50;1.30;;;18.90;92.70;;;19.34;81.93;100135.81;5224443;28;20060;-53
2023/07/01 04:09:31;;;;;;;1.70;1.20;;;19.00;92.70;;;19.36;81.73;100141.97;5224371;28;20049;-53
2023/07/01 04:12:05;;;;;;;2.42;1.50;;;19.00;92.60;;;19.34;81.28;100141.09;5224156;28;20048;-53
2023/07/01 04:14:37;;;;;;;2.50;1.42;;;19.00;92.40;;;19.34;81.39;100135.81;5224393;28;20143;-53
2023/07/01 04:17:11;;;;;;;2.15;1.45;;;19.00;92.40;;;19.35;81.67;100127.00;5223942;28;20052;-54
2023/07/01 04:19:43;;;;;;;2.85;1.40;;;19.00;92.50;;;19.35;81.58;100137.56;5223385;28;20041;-51
2023/07/01 04:22:16;;;;;;;1.67;1.40;;;19.00;92.50;;;19.37;81.39;100127.88;5223951;28;20056;-51
2023/07/01 04:24:48;;;;;;;2.28;1.13;;;19.00;92.50;;;19.36;81.71;100136.66;5223990;28;20039;-51
2023/07/01 04:27:20;;;;;;;2.67;1.60;;;19.00;92.60;;;19.33;81.49;100134.06;5223934;28;20052;-51
2023/07/01 04:29:53;;;;;;;3.03;1.42;;;19.00;92.40;;;19.34;81.81;100135.81;5223732;28;20056;-51
2023/07/01 04:32:28;;;;;;;1.95;1.38;;;19.00;92.60;;;19.37;81.88;100130.53;5223696;28;20048;-51
2023/07/01 04:35:01;;;;;;;1.63;1.40;;;19.00;92.60;;;19.40;81.84;100122.53;5223463;28;20057;-51
2023/07/01 04:37:34;;;;;;;2.60;1.35;;;19.00;92.60;;;19.41;81.72;100126.94;5223049;28;20052;-51
2023/07/01 04:40:09;;;;;;;2.40;1.40;;;19.00;92.60;;;19.42;81.67;100121.63;5223548;28;20053;-51
2023/07/01 04:42:50;;;;;;;3.83;1.40;;;19.10;92.60;;;19.42;81.48;100118.09;5223533;28;20053;-51
2023/07/01 04:45:22;;;;;;;2.25;1.60;;;19.00;92.50;;;19.36;81.34;100120.81;5217139;28;20041;-51
2023/07/01 04:47:56;;;;;;;1.30;1.20;;;19.00;92.50;;;19.35;81.50;100114.66;5223213;28;20052;-50
2023/07/01 04:50:28;;;;;;;2.08;1.45;;;19.00;92.50;;;19.38;81.70;100111.13;5223288;28;20051;-51
2023/07/01 04:53:00;;;;;;;3.90;1.55;;;19.00;92.60;;;19.40;81.45;100104.03;5223328;28;20475;-51
2023/07/01 04:55:33;;;;;;;2.15;1.40;;;19.00;92.50;;;19.43;81.54;100098.69;5223468;28;20045;-51
2023/07/01 04:58:05;;;;;;;3.42;1.63;;;19.10;92.60;;;19.46;81.29;100103.97;5222873;28;20056;-51
2023/07/01 05:00:38;;;;;;;2.08;1.40;;;19.10;92.50;;;19.49;81.04;100096.00;5223060;28;20552;-51
2023/07/01 05:03:12;;;;;;;1.70;1.27;;;19.10;92.40;;;19.49;80.76;100099.50;5223197;28;20049;-51
2023/07/01 05:05:44;;;;;;;1.55;1.30;;;19.10;92.30;;;19.50;80.61;100097.75;5223029;28;20041;-52
2023/07/01 05:08:17;;;;;;;2.63;1.50;;;19.10;92.30;;;19.52;80.51;100085.38;5222935;28;20099;-51
2023/07/01 05:10:52;;;;;;;3.10;1.40;;;19.20;92.30;;;19.56;80.38;100089.75;5222585;28;20049;-51
2023/07/01 05:13:24;;;;;;;2.55;1.60;;;19.20;92.20;;;19.58;79.74;100082.72;5223039;28;20110;-51
2023/07/01 05:15:57;;;;;;;1.77;1.50;;;19.20;92.00;;;19.62;79.85;100086.16;5222885;28;20478;-51
2023/07/01 05:18:31;;;;;;;3.72;1.70;;;19.30;92.10;;;19.66;79.75;100080.81;5222589;28;20113;-51
2023/07/01 05:21:04;;;;;;;2.45;1.52;;;19.30;92.00;;;19.63;79.47;100067.66;5222737;28;20510;-50
2023/07/01 05:23:36;;;;;;;1.70;1.23;;;19.30;91.90;;;19.62;79.50;100070.31;5220253;28;20045;-51
2023/07/01 05:26:09;;;;;;;2.55;1.50;;;19.30;91.90;;;19.64;79.45;100072.06;5234115;28;20049;-51
2023/07/01 05:28:44;;;;;;;1.58;1.30;;;19.30;91.80;;;19.65;79.75;100060.56;5221810;28;20056;-51
2023/07/01 05:31:17;;;;;;;1.95;1.40;;;19.30;91.90;;;19.70;79.63;100063.16;5215011;28;20399;-50
2023/07/01 05:33:50;;;;;;;1.65;1.30;;;19.30;91.90;;;19.76;79.62;100056.03;5222074;28;20122;-51
2023/07/01 05:36:23;;;;;;;2.58;1.48;;;19.40;91.90;;;19.82;79.61;100056.81;5222468;28;20502;-50
2023/07/01 05:38:58;;;;;;;1.83;1.30;;;19.40;91.90;;;19.86;79.55;100058.53;5221973;28;20498;-51
2023/07/01 05:41:31;;;;;;;1.98;1.45;;;19.50;92.20;;;19.90;79.31;100050.53;5222538;28;20053;-51
2023/07/01 05:44:03;;;;;;;2.33;1.52;;;19.50;91.80;;;19.97;79.23;100060.09;5221656;28;20094;-50
2023/07/01 05:46:36;;;;;;;3.20;1.60;;;19.50;91.80;;;20.01;78.68;100055.63;5222312;28;20052;-51
2023/07/01 05:49:12;;;;;;;2.58;1.55;;;19.60;91.70;;;19.99;78.41;100055.66;5221368;28;20045;-51
2023/07/01 05:51:45;;;;;;;3.05;1.65;;;19.60;91.50;;;19.95;78.74;100053.97;5220920;28;20045;-51
2023/07/01 05:54:18;;;;;;;3.58;1.58;;;19.50;91.60;;;19.91;79.02;100054.91;5222289;28;20053;-51
2023/07/01 05:56:50;;;;;;;2.22;1.40;;;19.60;91.70;;;19.90;80.37;100052.28;5220743;28;20048;-51
2023/07/01 05:59:23;;;;;;;1.50;1.40;;;19.50;92.10;;;19.89;81.78;100045.25;5222109;28;20063;-52
2023/07/01 06:01:55;;;;;;;2.63;1.33;;;19.50;92.60;;;19.87;82.64;100047.91;5220693;28;20049;-52
2023/07/01 06:04:29;;;;;;;1.98;1.40;;;19.50;92.90;;;19.83;82.68;100045.34;5219727;28;20108;-51
2023/07/01 06:07:05;;;;;;;2.60;1.58;;;19.50;93.00;;;19.81;82.64;100052.41;5219661;28;20045;-51
2023/07/01 06:09:37;;;;;;;2.17;1.55;;;19.50;93.00;;;19.76;82.36;100050.72;5220490;28;20413;-50
2023/07/01 06:12:11;;;;;;;3.65;1.60;;;19.40;92.80;;;19.73;82.16;100050.75;5220225;28;20041;-51
2023/07/01 06:14:44;;;;;;;3.63;1.38;;;19.40;92.80;;;19.73;82.21;100058.69;5219193;28;20045;-52
2023/07/01 06:17:16;;;;;;;4.80;1.65;;;19.40;92.80;;;19.69;81.67;100043.78;5220635;28;20565;-51
2023/07/01 06:19:50;;;;;;;3.35;1.42;;;19.30;92.70;;;19.69;81.25;100049.06;5221105;28;20049;-52
2023/07/01 06:22:22;;;;;;;2.83;1.55;;;19.30;92.60;;;19.69;81.44;100048.16;5221785;28;20041;-51
2023/07/01 06:24:55;;;;;;;2.28;1.48;;;19.30;92.60;;;19.71;81.33;100047.28;5221298;28;20471;-51
2023/07/01 06:27:27;;;;;;;2.85;1.30;;;19.30;92.60;;;19.75;81.50;100051.59;5221387;28;20044;-51
2023/07/01 06:30:00;;;;;;;3.13;1.45;;;19.40;92.70;;;19.79;81.42;100055.97;5221280;28;20395;-51
2023/07/01 06:32:32;;;;;;;3.20;1.40;;;19.40;92.70;;;19.85;81.39;100062.06;5221284;28;20076;-51
2023/07/01 06:35:07;;;;;;;3.22;1.73;;;19.40;92.70;;;19.93;81.55;100053.09;5221298;28;20049;-51
2023/07/01 06:37:39;;;;;;;2.70;1.50;;;19.50;92.70;;;19.97;82.13;100053.94;5220981;28;20060;-51
2023/07/01 06:40:12;;;;;;;2.03;1.50;;;19.50;93.00;;;19.92;83.14;100051.38;5221011;28;20516;-51
2023/07/01 06:42:46;;;;;;;2.28;1.55;;;19.50;93.20;;;19.91;83.58;100054.91;5220942;28;20074;-52
2023/07/01 06:45:18;;;;;;;2.28;1.70;;;19.50;93.40;;;19.92;84.31;100050.50;5221201;28;20405;-51
2023/07/01 06:47:51;;;;;;;3.30;1.40;;;19.50;93.60;;;19.94;84.88;100059.28;5220488;28;20087;-51
2023/07/01 06:50:24;;;;;;;2.50;1.52;;;19.50;93.80;;;19.95;85.25;100055.72;5221742;28;20510;-50
2023/07/01 06:53:00;;;;;;;2.78;1.40;;;19.60;94.00;;;20.06;86.54;100059.09;5220930;28;20048;-50
2023/07/01 06:55:33;;;;;;;2.33;1.67;;;19.60;94.50;;;20.18;86.31;100058.91;5220484;28;20056;-50
2023/07/01 06:58:05;;;;;;;2.85;1.40;;;19.80;94.50;;;20.24;86.14;100056.16;5219351;28;20048;-50
2023/07/01 07:00:37;;;;;;;3.53;1.42;;;19.80;94.50;;;20.30;86.00;100053.41;5221045;28;20049;-49
2023/07/01 07:03:13;;;;;;;3.78;1.95;;;19.90;94.50;;;20.37;85.90;100054.19;5221393;28;20119;-50
2023/07/01 07:05:47;;;;;;;2.45;1.77;;;20.00;94.40;;;20.46;85.73;100058.47;5221314;28;20395;-49
2023/07/01 07:08:19;;;;;;;2.90;1.58;;;20.10;94.50;;;20.51;87.02;100059.25;5220419;28;20071;-50
2023/07/01 07:10:54;;;;;;;2.33;1.30;;;20.10;95.00;;;20.54;87.60;100062.75;5221088;28;20068;-49
2023/07/01 07:13:27;;;;;;;3.40;1.63;;;20.20;95.00;;;20.50;88.44;100054.88;5213728;28;20473;-49
2023/07/01 07:15:59;;;;;;;1.88;1.50;;;20.10;95.30;;;20.49;89.04;100063.72;5220638;28;20045;-49
2023/07/01 07:18:32;;;;;;;3.45;1.77;;;20.20;95.50;;;20.50;88.65;100062.81;5220744;28;20414;-48
2023/07/01 07:21:05;;;;;;;3.40;1.50;;;20.10;95.20;;;20.46;88.91;100064.63;5220852;28;20044;-48
2023/07/01 07:23:38;;;;;;;2.58;1.50;;;20.10;95.50;;;20.43;89.97;100054.06;5221075;28;20544;-49
2023/07/01 07:26:10;;;;;;;3.35;1.23;;;20.10;95.90;;;20.42;91.80;100056.75;5220473;28;20041;-48
2023/07/01 07:28:43;;;;;;;4.13;1.33;;;20.10;96.50;;;20.40;90.80;100064.69;5220424;28;20053;-48
2023/07/01 07:31:18;;;;;;;4.22;1.40;;;20.10;96.30;;;20.42;92.00;100052.31;5220313;28;20053;-49
2023/07/01 07:33:50;;;;;;;2.67;1.30;;;20.10;96.70;;;20.51;93.22;100049.53;5220062;28;20048;-48
2023/07/01 07:36:24;;;;;;;3.75;1.40;;;20.10;97.50;;;20.62;93.71;100046.72;5219470;28;20045;-48
2023/07/01 07:38:57;;;;;;;2.00;1.20;;;20.20;97.60;;;20.71;94.96;100054.47;5219971;28;20063;-49
2023/07/01 07:41:29;;;;;;;3.20;1.35;;;20.30;98.00;;;20.80;94.88;100048.13;5219702;28;20102;-49
2023/07/01 07:44:02;;;;;;;2.55;1.17;;;20.40;98.00;;;20.90;96.92;100048.84;5220586;28;20049;-48
2023/07/01 07:46:37;;;;;;;2.28;1.55;;;20.40;98.90;;;20.98;99.27;100052.22;5220544;28;20127;-49
2023/07/01 07:49:10;;;;;;;1.98;1.30;;;20.50;99.70;;;21.07;100.00;100047.63;5220440;28;20049;-48
2023/07/01 07:51:44;;;;;;;4.07;1.75;;;20.60;99.90;;;21.12;100.00;100055.44;5220236;28;20461;-48
2023/07/01 07:54:16;;;;;;;2.78;1.38;;;20.60;99.90;;;21.07;99.90;100047.63;5220250;28;20053;-48
2023/07/01 07:56:48;;;;;;;2.67;1.30;;;20.60;99.90;;;21.01;99.55;100046.88;5220562;28;20697;-47
2023/07/01 07:59:24;;;;;;;1.65;1.13;;;20.60;99.90;;;20.91;100.00;100047.94;5219787;28;20587;-48
2023/07/01 08:01:58;;;;;;;3.50;1.50;;;20.60;99.90;;;20.88;100.00;100048.00;5219746;28;20144;-48
2023/07/01 08:04:30;;;;;;;3.50;1.42;;;20.50;99.90;;;20.92;100.00;100047.91;5212905;28;20064;-49
2023/07/01 08:07:04;;;;;;;3.25;2.03;;;20.50;99.90;;;20.99;100.00;100049.53;5222789;28;20444;-48
2023/07/01 08:09:37;;;;;;;3.90;1.55;;;20.60;99.90;;;20.98;100.00;100044.25;5223574;28;20080;-48
2023/07/01 08:12:11;;;;;;;3.35;1.42;;;20.60;99.90;;;21.02;100.00;100048.63;5223887;28;20056;-49
2023/07/01 08:14:43;;;;;;;2.35;1.33;;;20.60;99.90;;;21.08;100.00;100048.50;5223928;28;20060;-48
2023/07/01 08:17:16;;;;;;;2.53;1.40;;;20.70;99.90;;;21.17;100.00;100044.78;5223275;28;20049;-49
2023/07/01 08:19:48;;;;;;;2.55;1.30;;;20.70;99.90;;;21.10;100.00;100046.69;5223744;28;20045;-48
2023/07/01 08:22:22;;;;;;;3.30;1.42;;;20.70;99.90;;;21.10;100.00;100041.38;5223165;28;20161;-48
2023/07/01 08:24:54;;;;;;;2.40;1.30;;;20.70;99.90;;;21.09;100.00;100029.03;5232241;28;20049;-49
2023/07/01 08:27:27;;;;;;;3.58;1.50;;;20.70;99.90;;;21.02;100.00;100033.59;5239977;28;20049;-48
2023/07/01 08:29:59;;;;;;;2.55;1.40;;;20.70;99.90;;;20.82;100.00;100035.75;5222438;28;20045;-48
2023/07/01 08:32:33;;;;;;;1.83;1.20;;;20.60;99.90;;;20.65;100.00;100030.75;5223915;28;20076;-47
2023/07/01 08:35:07;;;;;;;2.38;1.52;;;20.40;99.90;;;20.54;100.00;100030.09;5223546;28;20498;-47
2023/07/01 08:37:40;;;;;;;4.10;1.33;;;20.30;99.90;;;20.54;100.00;100027.47;5223321;28;20067;-47
2023/07/01 08:40:13;;;;;;;2.20;1.30;;;20.20;99.90;;;20.54;100.00;100030.09;5223459;28;20052;-47
2023/07/01 08:42:49;;;;;;;3.45;1.33;;;20.20;99.90;;;20.55;97.18;100034.50;5223662;28;20056;-47
2023/07/01 08:45:23;;;;;;;2.78;1.98;;;20.10;99.90;;;20.51;97.50;100035.44;5218651;28;20410;-47
2023/07/01 08:47:58;;;;;;;2.40;1.40;;;20.20;99.90;;;20.48;97.25;100024.91;5222654;28;20060;-47
2023/07/01 08:50:38;;;;;;;2.13;1.30;;;20.10;99.90;;;20.48;100.00;100030.22;5223384;28;20043;-47
2023/07/01 08:53:16;;;;;;;2.38;1.35;;;20.10;99.90;;;20.51;97.40;100024.84;5223211;28;20045;-47
2023/07/01 08:55:48;;;;;;;2.28;1.10;;;20.10;99.90;;;20.61;96.95;100025.56;5223711;28;20052;-48
2023/07/01 08:58:21;;;;;;;3.20;1.38;;;20.20;99.90;;;20.68;95.79;100030.72;5216498;28;20045;-45
2023/07/01 09:00:55;;;;;;;1.45;1.10;;;20.20;99.90;;;20.67;98.12;100030.72;5223316;28;20049;-45
2023/07/01 09:03:29;;;;;;;2.28;1.20;;;20.20;99.90;;;20.66;99.20;100034.28;5223036;28;20045;-45
2023/07/01 09:06:01;;;;;;;2.15;1.25;;;20.20;99.90;;;20.62;98.84;100022.88;5222867;28;20045;-44
2023/07/01 09:08:38;;;;;;;2.78;1.38;;;20.20;99.90;;;20.46;100.00;100022.28;5213795;28;20076;-45
2023/07/01 09:11:15;;;;;;;3.58;1.70;;;20.20;99.90;;;20.41;100.00;100012.63;5222923;28;20045;-45
2023/07/01 09:13:55;;;;;;;1.50;1.10;;;20.10;99.90;;;20.45;100.00;100011.72;5222969;28;20045;-45
2023/07/01 09:16:35;;;;;;;1.45;1.23;;;20.10;99.90;;;20.51;100.00;100011.63;5222803;28;20047;-46
2023/07/01 09:19:10;;;;;;;3.67;1.42;;;20.10;99.90;;;20.51;100.00;100008.97;5221407;28;20049;-46
2023/07/01 09:21:43;;;;;;;3.03;1.40;;;20.10;99.90;;;20.52;100.00;100011.56;5222969;28;20045;-46
2023/07/01 09:24:17;;;;;;;2.60;1.23;;;20.10;99.90;;;20.55;100.00;100008.03;5222683;28;20055;-46
2023/07/01 09:26:54;;;;;;;1.50;1.20;;;20.10;99.90;;;20.58;100.00;100000.88;5223124;28;20048;-46
2023/07/01 09:29:32;;;;;;;1.77;1.40;;;20.20;99.90;;;20.58;100.00;100002.66;5221993;28;20048;-45
2023/07/01 09:32:06;;;;;;;2.58;1.40;;;20.20;99.90;;;20.54;100.00;100003.63;5222563;28;20053;-45
2023/07/01 09:34:55;;;;;;;1.45;1.15;;;20.20;99.90;;;20.43;100.00;99994.97;5222854;28;20049;-46
2023/07/01 09:37:29;;;;;;;2.00;1.30;;;20.10;99.90;;;20.42;100.00;99999.41;5221045;28;20045;-47
2023/07/01 09:40:20;;;;;;;2.17;1.20;;;20.10;99.90;;;20.49;100.00;99994.91;5222559;28;20072;-46
2023/07/01 09:42:55;;;;;;;1.52;1.25;;;20.10;99.90;;;20.54;100.00;99982.44;5222354;28;20482;-46
2023/07/01 09:45:27;;;;;;;1.40;1.30;;;20.10;99.90;;;20.59;100.00;99985.84;5222324;28;20415;-47
2023/07/01 09:48:12;;;;;;;1.80;1.20;;;20.10;99.90;;;20.62;100.00;99984.94;5222275;28;20047;-46
2023/07/01 09:50:44;;;;;;;2.33;1.20;;;20.20;99.90;;;20.63;100.00;100000.81;5215622;28;20057;-46
2023/07/01 09:53:21;;;;;;;1.13;1.00;;;20.20;99.90;;;20.64;100.00;99981.34;5222185;28;20053;-46
2023/07/01 09:55:55;;;;;;;2.50;1.20;;;20.20;99.90;;;20.62;100.00;99977.00;5222424;28;20048;-46
2023/07/01 09:58:28;;;;;;;1.73;1.35;;;20.20;99.90;;;20.55;100.00;99978.91;5221206;28;20045;-45
2023/07/01 10:01:01;;;;;;;1.27;1.13;;;20.20;99.90;;;20.56;100.00;99972.69;5216880;28;20056;-47
2023/07/01 10:03:37;;;;;;;1.52;1.02;;;20.20;99.90;;;20.59;100.00;99975.28;5221069;28;20277;-47
2023/07/01 10:06:11;;;;;;;2.15;1.17;;;20.20;99.90;;;20.65;100.00;99975.16;5216905;28;20410;-46
2023/07/01 10:08:44;;;;;;;1.25;1.10;;;20.30;99.90;;;20.68;100.00;99967.16;5218991;28;20060;-47
2023/07/01 10:11:23;;;;;;;1.52;1.00;;;20.30;99.90;;;20.75;100.00;99965.28;5218843;28;20703;-47
2023/07/01 10:13:58;;;;;;;1.13;1.02;;;20.30;99.90;;;20.78;100.00;99968.72;5220785;28;20049;-46
2023/07/01 10:16:31;;;;;;;2.45;1.40;;;20.40;99.90;;;20.79;100.00;99957.22;5220368;28;20390;-46
2023/07/01 10:19:28;;;;;;;1.30;1.00;;;20.40;99.90;;;20.77;100.00;99948.44;5220850;28;20056;-47
2023/07/01 10:22:22;;;;;;;1.80;1.20;;;20.40;99.90;;;20.76;100.00;99956.41;5220742;28;20037;-46
2023/07/01 10:24:57;;;;;;;1.20;1.10;;;20.40;99.90;;;20.76;100.00;99946.69;5221434;28;20059;-46
2023/07/01 10:28:05;;;;;;;;;;;20.40;99.90;;;20.78;100.00;99939.59;5222516;28;20044;-46
2023/07/01 10:31:14;;;;;;;1.10;1.00;;;20.40;99.90;;;20.85;100.00;99951.78;5218146;28;19931;-47
2023/07/01 10:33:57;;;;;;;1.50;1.20;;;20.50;99.90;;;20.86;100.00;99942.97;5219182;28;20506;-46
2023/07/01 10:36:30;;;;;;;1.55;1.20;;;20.50;99.90;;;20.89;100.00;99947.31;5217479;28;20437;-47
2023/07/01 10:39:34;;;;;;;1.75;1.10;;;20.50;99.90;;;20.94;99.94;99955.19;5221192;28;20059;-46
2023/07/01 10:42:30;;;;;;;1.10;1.00;;;20.50;99.90;;;20.93;100.00;99954.31;5217054;28;20057;-46